sensor_id;sensor_type;location;lat;lon;timestamp;pressure;altitude;pressure_sealevel;temperature;humidity
73338;BME280;61575;49.908;35.556;2023-12-28T00:02:34;99287.84;;;0.44;87.97
73338;BME280;61575;49.908;35.556;2023-12-28T00:05:36;99296.03;;;0.52;88.33
73338;BME280;61575;49.908;35.556;2023-12-28T00:08:39;99300.03;;;0.58;88.05
73338;BME280;61575;49.908;35.556;2023-12-28T00:11:41;99302.63;;;0.47;88.85
73338;BME280;61575;49.908;35.556;2023-12-28T00:14:43;99313.91;;;0.49;88.91
73338;BME280;61575;49.908;35.556;2023-12-28T00:17:45;99315.03;;;0.58;88.91
73338;BME280;61575;49.908;35.556;2023-12-28T00:20:48;99312.63;;;0.55;89.34
73338;BME280;61575;49.908;35.556;2023-12-28T00:23:50;99332.91;;;0.54;89.52
73338;BME280;61575;49.908;35.556;2023-12-28T00:26:52;99333.31;;;0.61;89.38
73338;BME280;61575;49.908;35.556;2023-12-28T00:29:54;99330.59;;;0.49;89.76
73338;BME280;61575;49.908;35.556;2023-12-28T00:32:56;99340.63;;;0.57;90.04
73338;BME280;61575;49.908;35.556;2023-12-28T00:35:58;99339.22;;;0.64;89.68
73338;BME280;61575;49.908;35.556;2023-12-28T00:39:00;99347.03;;;0.66;89.52
73338;BME280;61575;49.908;35.556;2023-12-28T00:42:03;99344.06;;;0.70;89.40
73338;BME280;61575;49.908;35.556;2023-12-28T00:45:06;99353.56;;;0.73;89.70
73338;BME280;61575;49.908;35.556;2023-12-28T00:48:09;99350.81;;;0.74;89.62
73338;BME280;61575;49.908;35.556;2023-12-28T00:51:11;99351.53;;;0.76;89.79
73338;BME280;61575;49.908;35.556;2023-12-28T00:54:13;99364.88;;;0.75;89.81
73338;BME280;61575;49.908;35.556;2023-12-28T00:57:16;99377.97;;;0.76;89.71
73338;BME280;61575;49.908;35.556;2023-12-28T01:00:18;99370.03;;;0.76;89.88
73338;BME280;61575;49.908;35.556;2023-12-28T01:03:20;99386.97;;;0.74;90.13
73338;BME280;61575;49.908;35.556;2023-12-28T01:06:23;99380.94;;;0.72;90.28
73338;BME280;61575;49.908;35.556;2023-12-28T01:09:30;99385.28;;;0.73;89.75
73338;BME280;61575;49.908;35.556;2023-12-28T01:12:34;99376.28;;;0.75;89.68
73338;BME280;61575;49.908;35.556;2023-12-28T01:15:36;99386.22;;;0.72;89.78
73338;BME280;61575;49.908;35.556;2023-12-28T01:18:38;99379.78;;;0.76;89.56
73338;BME280;61575;49.908;35.556;2023-12-28T01:21:40;99403.16;;;0.69;90.15
73338;BME280;61575;49.908;35.556;2023-12-28T01:24:46;99400.50;;;0.69;89.98
73338;BME280;61575;49.908;35.556;2023-12-28T01:27:48;99397.31;;;0.77;89.41
73338;BME280;61575;49.908;35.556;2023-12-28T01:30:50;99403.13;;;0.82;89.16
73338;BME280;61575;49.908;35.556;2023-12-28T01:33:53;99399.84;;;0.78;89.58
73338;BME280;61575;49.908;35.556;2023-12-28T01:36:55;99405.75;;;0.82;89.45
73338;BME280;61575;49.908;35.556;2023-12-28T01:39:57;99409.56;;;0.78;89.29
73338;BME280;61575;49.908;35.556;2023-12-28T01:43:00;99417.50;;;0.78;89.25
73338;BME280;61575;49.908;35.556;2023-12-28T01:46:02;99412.13;;;0.79;89.00
73338;BME280;61575;49.908;35.556;2023-12-28T01:49:04;99421.50;;;0.83;88.81
73338;BME280;61575;49.908;35.556;2023-12-28T01:52:07;99420.66;;;0.83;88.63
73338;BME280;61575;49.908;35.556;2023-12-28T01:55:09;99418.88;;;0.83;88.25
73338;BME280;61575;49.908;35.556;2023-12-28T01:58:12;99422.88;;;0.89;88.28
73338;BME280;61575;49.908;35.556;2023-12-28T02:01:14;99421.09;;;0.77;88.08
73338;BME280;61575;49.908;35.556;2023-12-28T02:04:16;99429.22;;;0.87;87.78
73338;BME280;61575;49.908;35.556;2023-12-28T02:07:20;99436.53;;;0.83;87.85
73338;BME280;61575;49.908;35.556;2023-12-28T02:10:25;99426.47;;;0.88;87.62
73338;BME280;61575;49.908;35.556;2023-12-28T02:13:27;99438.44;;;0.81;87.61
73338;BME280;61575;49.908;35.556;2023-12-28T02:16:36;99438.84;;;0.88;87.31
73338;BME280;61575;49.908;35.556;2023-12-28T02:22:48;99445.69;;;0.90;87.42
73338;BME280;61575;49.908;35.556;2023-12-28T02:25:50;99444.44;;;0.83;87.82
73338;BME280;61575;49.908;35.556;2023-12-28T02:28:52;99448.47;;;0.89;87.57
73338;BME280;61575;49.908;35.556;2023-12-28T02:32:00;99449.31;;;0.89;87.71
73338;BME280;61575;49.908;35.556;2023-12-28T02:35:30;99449.97;;;0.80;88.03
73338;BME280;61575;49.908;35.556;2023-12-28T02:38:36;99449.53;;;0.86;87.64
73338;BME280;61575;49.908;35.556;2023-12-28T02:41:38;99454.28;;;0.81;87.59
73338;BME280;61575;49.908;35.556;2023-12-28T02:44:40;99455.97;;;0.82;87.28
73338;BME280;61575;49.908;35.556;2023-12-28T02:47:43;99465.09;;;0.78;87.48
73338;BME280;61575;49.908;35.556;2023-12-28T02:50:46;99461.28;;;0.69;87.81
73338;BME280;61575;49.908;35.556;2023-12-28T02:53:48;99468.78;;;0.75;87.63
73338;BME280;61575;49.908;35.556;2023-12-28T02:56:50;99472.09;;;0.66;87.74
73338;BME280;61575;49.908;35.556;2023-12-28T02:59:52;99477.91;;;0.59;87.60
73338;BME280;61575;49.908;35.556;2023-12-28T03:02:54;99473.03;;;0.65;87.96
73338;BME280;61575;49.908;35.556;2023-12-28T03:05:56;99474.84;;;0.65;87.95
73338;BME280;61575;49.908;35.556;2023-12-28T03:08:59;99485.63;;;0.62;87.61
73338;BME280;61575;49.908;35.556;2023-12-28T03:12:01;99495.03;;;0.53;87.76
73338;BME280;61575;49.908;35.556;2023-12-28T03:15:04;99494.31;;;0.51;87.80
73338;BME280;61575;49.908;35.556;2023-12-28T03:18:06;99500.22;;;0.55;87.66
73338;BME280;61575;49.908;35.556;2023-12-28T03:21:10;99497.69;;;0.53;87.50
73338;BME280;61575;49.908;35.556;2023-12-28T03:24:13;99499.59;;;0.51;87.66
73338;BME280;61575;49.908;35.556;2023-12-28T03:27:15;99496.31;;;0.47;87.86
73338;BME280;61575;49.908;35.556;2023-12-28T03:30:17;99501.06;;;0.42;87.82
73338;BME280;61575;49.908;35.556;2023-12-28T03:33:19;99503.19;;;0.37;88.24
73338;BME280;61575;49.908;35.556;2023-12-28T03:36:22;99505.81;;;0.37;88.24
73338;BME280;61575;49.908;35.556;2023-12-28T03:39:27;99510.38;;;0.35;88.11
73338;BME280;61575;49.908;35.556;2023-12-28T03:42:29;99513.75;;;0.37;88.50
73338;BME280;61575;49.908;35.556;2023-12-28T03:45:31;99511.94;;;0.38;88.15
73338;BME280;61575;49.908;35.556;2023-12-28T03:48:35;99512.06;;;0.36;88.10
73338;BME280;61575;49.908;35.556;2023-12-28T03:51:38;99505.81;;;0.37;88.56
73338;BME280;61575;49.908;35.556;2023-12-28T03:54:40;99513.66;;;0.39;88.38
73338;BME280;61575;49.908;35.556;2023-12-28T03:57:42;99523.03;;;0.30;88.88
73338;BME280;61575;49.908;35.556;2023-12-28T04:00:48;99523.38;;;0.38;88.56
73338;BME280;61575;49.908;35.556;2023-12-28T04:03:50;99523.56;;;0.35;88.46
73338;BME280;61575;49.908;35.556;2023-12-28T04:06:52;99531.09;;;0.41;88.52
73338;BME280;61575;49.908;35.556;2023-12-28T04:09:55;99532.97;;;0.39;88.22
73338;BME280;61575;49.908;35.556;2023-12-28T04:13:00;99538.06;;;0.42;88.16
73338;BME280;61575;49.908;35.556;2023-12-28T04:16:03;99541.75;;;0.27;87.99
73338;BME280;61575;49.908;35.556;2023-12-28T04:19:06;99530.97;;;0.43;88.23
73338;BME280;61575;49.908;35.556;2023-12-28T04:22:08;99533.09;;;0.38;87.86
73338;BME280;61575;49.908;35.556;2023-12-28T04:25:10;99536.69;;;0.37;87.86
73338;BME280;61575;49.908;35.556;2023-12-28T04:28:12;99533.94;;;0.38;87.83
73338;BME280;61575;49.908;35.556;2023-12-28T04:31:14;99533.09;;;0.38;87.95
73338;BME280;61575;49.908;35.556;2023-12-28T04:34:18;99537.09;;;0.31;88.14
73338;BME280;61575;49.908;35.556;2023-12-28T04:37:20;99536.78;;;0.35;88.15
73338;BME280;61575;49.908;35.556;2023-12-28T04:40:22;99539.09;;;0.27;88.03
73338;BME280;61575;49.908;35.556;2023-12-28T04:43:24;99544.91;;;0.32;88.05
73338;BME280;61575;49.908;35.556;2023-12-28T04:46:27;99552.09;;;0.30;88.15
73338;BME280;61575;49.908;35.556;2023-12-28T04:49:29;99550.31;;;0.31;87.82
73338;BME280;61575;49.908;35.556;2023-12-28T04:52:31;99562.03;;;0.39;87.66
73338;BME280;61575;49.908;35.556;2023-12-28T04:55:34;99555.28;;;0.35;87.72
73338;BME280;61575;49.908;35.556;2023-12-28T04:58:36;99566.78;;;0.34;87.38
73338;BME280;61575;49.908;35.556;2023-12-28T05:01:42;99571.75;;;0.26;87.30
73338;BME280;61575;49.908;35.556;2023-12-28T05:04:45;99576.84;;;0.42;87.54
73338;BME280;61575;49.908;35.556;2023-12-28T05:07:47;99581.47;;;0.38;87.36
73338;BME280;61575;49.908;35.556;2023-12-28T05:10:49;99587.72;;;0.37;87.28
73338;BME280;61575;49.908;35.556;2023-12-28T05:13:51;99584.66;;;0.43;87.23
73338;BME280;61575;49.908;35.556;2023-12-28T05:16:53;99593.44;;;0.44;87.49
73338;BME280;61575;49.908;35.556;2023-12-28T05:19:56;99589.72;;;0.46;87.32
73338;BME280;61575;49.908;35.556;2023-12-28T05:22:58;99594.91;;;0.48;87.30
73338;BME280;61575;49.908;35.556;2023-12-28T05:26:00;99610.66;;;0.37;87.60
73338;BME280;61575;49.908;35.556;2023-12-28T05:29:02;99613.50;;;0.46;87.63
73338;BME280;61575;49.908;35.556;2023-12-28T05:32:05;99611.91;;;0.31;87.90
73338;BME280;61575;49.908;35.556;2023-12-28T05:35:07;99604.94;;;0.43;87.66
73338;BME280;61575;49.908;35.556;2023-12-28T05:38:09;99616.91;;;0.48;87.63
73338;BME280;61575;49.908;35.556;2023-12-28T05:41:12;99615.94;;;0.49;87.86
73338;BME280;61575;49.908;35.556;2023-12-28T05:44:14;99616.56;;;0.40;88.25
73338;BME280;61575;49.908;35.556;2023-12-28T05:47:16;99611.69;;;0.34;88.53
73338;BME280;61575;49.908;35.556;2023-12-28T05:50:18;99602.41;;;0.41;88.62
73338;BME280;61575;49.908;35.556;2023-12-28T05:53:20;99610.97;;;0.45;88.43
73338;BME280;61575;49.908;35.556;2023-12-28T05:56:22;99616.34;;;0.43;88.42
73338;BME280;61575;49.908;35.556;2023-12-28T05:59:24;99619.63;;;0.34;89.04
73338;BME280;61575;49.908;35.556;2023-12-28T06:02:28;99625.09;;;0.31;89.00
73338;BME280;61575;49.908;35.556;2023-12-28T06:05:30;99616.34;;;0.43;88.59
73338;BME280;61575;49.908;35.556;2023-12-28T06:08:33;99616.78;;;0.50;88.38
73338;BME280;61575;49.908;35.556;2023-12-28T06:11:35;99614.47;;;0.45;88.70
73338;BME280;61575;49.908;35.556;2023-12-28T06:14:38;99619.63;;;0.47;88.72
73338;BME280;61575;49.908;35.556;2023-12-28T06:17:40;99618.06;;;0.44;88.99
73338;BME280;61575;49.908;35.556;2023-12-28T06:20:42;99629.47;;;0.58;88.75
73338;BME280;61575;49.908;35.556;2023-12-28T06:23:44;99637.81;;;0.51;88.92
73338;BME280;61575;49.908;35.556;2023-12-28T06:26:46;99640.13;;;0.43;89.00
73338;BME280;61575;49.908;35.556;2023-12-28T06:29:48;99641.75;;;0.59;88.95
73338;BME280;61575;49.908;35.556;2023-12-28T06:32:50;99639.63;;;0.64;88.85
73338;BME280;61575;49.908;35.556;2023-12-28T06:35:52;99639.31;;;0.68;88.75
73338;BME280;61575;49.908;35.556;2023-12-28T06:38:54;99641.88;;;0.70;88.76
73338;BME280;61575;49.908;35.556;2023-12-28T06:41:56;99653.72;;;0.77;88.90
73338;BME280;61575;49.908;35.556;2023-12-28T06:44:59;99661.63;;;0.77;88.46
73338;BME280;61575;49.908;35.556;2023-12-28T06:48:01;99669.25;;;0.69;88.96
73338;BME280;61575;49.908;35.556;2023-12-28T06:51:04;99678.97;;;0.81;88.56
73338;BME280;61575;49.908;35.556;2023-12-28T06:54:06;99678.03;;;0.82;88.56
73338;BME280;61575;49.908;35.556;2023-12-28T06:57:08;99683.97;;;0.85;88.61
73338;BME280;61575;49.908;35.556;2023-12-28T07:00:12;99676.03;;;0.85;88.42
73338;BME280;61575;49.908;35.556;2023-12-28T07:03:14;99678.34;;;0.90;88.43
73338;BME280;61575;49.908;35.556;2023-12-28T07:06:16;99685.53;;;0.88;88.34
73338;BME280;61575;49.908;35.556;2023-12-28T07:09:18;99679.72;;;0.96;88.37
73338;BME280;61575;49.908;35.556;2023-12-28T07:12:20;99699.19;;;0.95;88.68
73338;BME280;61575;49.908;35.556;2023-12-28T07:15:22;99691.78;;;0.87;88.80
73338;BME280;61575;49.908;35.556;2023-12-28T07:18:25;99692.09;;;0.95;88.64
73338;BME280;61575;49.908;35.556;2023-12-28T07:21:27;99692.19;;;0.81;88.98
73338;BME280;61575;49.908;35.556;2023-12-28T07:24:29;99702.47;;;0.98;88.64
73338;BME280;61575;49.908;35.556;2023-12-28T07:27:32;99698.13;;;0.97;88.45
73338;BME280;61575;49.908;35.556;2023-12-28T07:30:36;99711.25;;;1.11;88.15
73338;BME280;61575;49.908;35.556;2023-12-28T07:33:39;99713.91;;;1.37;87.69
73338;BME280;61575;49.908;35.556;2023-12-28T07:36:41;99715.44;;;1.77;86.94
73338;BME280;61575;49.908;35.556;2023-12-28T07:39:46;99716.97;;;1.93;86.06
73338;BME280;61575;49.908;35.556;2023-12-28T07:42:48;99728.56;;;2.15;84.92
73338;BME280;61575;49.908;35.556;2023-12-28T07:45:50;99733.75;;;2.41;84.20
73338;BME280;61575;49.908;35.556;2023-12-28T07:48:52;99737.53;;;2.50;83.33
73338;BME280;61575;49.908;35.556;2023-12-28T07:51:54;99726.78;;;2.75;82.55
73338;BME280;61575;49.908;35.556;2023-12-28T07:54:56;99722.63;;;2.95;81.02
73338;BME280;61575;49.908;35.556;2023-12-28T07:58:00;99721.56;;;2.97;79.07
73338;BME280;61575;49.908;35.556;2023-12-28T08:01:03;99728.53;;;2.87;79.54
73338;BME280;61575;49.908;35.556;2023-12-28T08:04:05;99729.63;;;2.61;79.04
73338;BME280;61575;49.908;35.556;2023-12-28T08:07:07;99732.56;;;2.45;79.12
73338;BME280;61575;49.908;35.556;2023-12-28T08:10:10;99740.97;;;2.15;79.20
73338;BME280;61575;49.908;35.556;2023-12-28T08:13:12;99733.34;;;2.10;79.86
73338;BME280;61575;49.908;35.556;2023-12-28T08:16:14;99707.94;;;2.08;80.32
73338;BME280;61575;49.908;35.556;2023-12-28T08:19:16;99720.66;;;2.03;80.01
73338;BME280;61575;49.908;35.556;2023-12-28T08:22:19;99715.44;;;2.38;79.75
73338;BME280;61575;49.908;35.556;2023-12-28T08:25:21;99723.94;;;2.54;79.31
73338;BME280;61575;49.908;35.556;2023-12-28T08:28:24;99736.34;;;2.54;78.61
73338;BME280;61575;49.908;35.556;2023-12-28T08:31:26;99739.00;;;2.54;77.83
73338;BME280;61575;49.908;35.556;2023-12-28T08:34:28;99744.97;;;2.44;77.09
73338;BME280;61575;49.908;35.556;2023-12-28T08:37:31;99744.97;;;2.44;77.87
73338;BME280;61575;49.908;35.556;2023-12-28T08:40:33;99746.06;;;2.42;77.08
73338;BME280;61575;49.908;35.556;2023-12-28T08:43:36;99749.44;;;2.44;77.21
73338;BME280;61575;49.908;35.556;2023-12-28T08:46:41;99749.59;;;2.54;77.19
73338;BME280;61575;49.908;35.556;2023-12-28T08:49:43;99741.81;;;2.39;76.74
73338;BME280;61575;49.908;35.556;2023-12-28T08:52:45;99738.50;;;2.48;77.75
73338;BME280;61575;49.908;35.556;2023-12-28T08:55:47;99739.97;;;2.53;77.95
73338;BME280;61575;49.908;35.556;2023-12-28T08:58:50;99735.84;;;2.48;78.53
73338;BME280;61575;49.908;35.556;2023-12-28T09:01:54;99737.66;;;2.48;78.58
73338;BME280;61575;49.908;35.556;2023-12-28T09:04:58;99747.13;;;2.39;78.68
73338;BME280;61575;49.908;35.556;2023-12-28T09:08:01;99741.50;;;2.44;78.57
73338;BME280;61575;49.908;35.556;2023-12-28T09:11:03;99751.75;;;2.48;78.33
73338;BME280;61575;49.908;35.556;2023-12-28T09:14:05;99737.19;;;2.54;78.08
73338;BME280;61575;49.908;35.556;2023-12-28T09:17:07;99728.38;;;2.77;77.98
73338;BME280;61575;49.908;35.556;2023-12-28T09:20:10;99717.25;;;3.07;76.97
73338;BME280;61575;49.908;35.556;2023-12-28T09:23:13;99713.78;;;3.40;75.73
73338;BME280;61575;49.908;35.556;2023-12-28T09:26:16;99710.41;;;3.38;74.34
73338;BME280;61575;49.908;35.556;2023-12-28T09:29:18;99719.22;;;3.28;74.08
73338;BME280;61575;49.908;35.556;2023-12-28T09:32:20;99720.25;;;3.03;74.00
73338;BME280;61575;49.908;35.556;2023-12-28T09:35:22;99718.47;;;3.15;73.81
73338;BME280;61575;49.908;35.556;2023-12-28T09:38:24;99717.09;;;2.98;73.62
73338;BME280;61575;49.908;35.556;2023-12-28T09:41:30;99716.25;;;2.97;74.17
73338;BME280;61575;49.908;35.556;2023-12-28T09:44:38;99729.09;;;2.79;73.26
73338;BME280;61575;49.908;35.556;2023-12-28T09:47:42;99728.00;;;2.71;73.92
73338;BME280;61575;49.908;35.556;2023-12-28T09:50:49;99731.31;;;2.62;74.11
73338;BME280;61575;49.908;35.556;2023-12-28T09:53:52;99715.19;;;2.65;74.76
73338;BME280;61575;49.908;35.556;2023-12-28T09:56:55;99721.56;;;2.62;74.59
73338;BME280;61575;49.908;35.556;2023-12-28T09:59:58;99715.81;;;2.68;73.30
73338;BME280;61575;49.908;35.556;2023-12-28T10:03:01;99721.34;;;2.65;72.23
73338;BME280;61575;49.908;35.556;2023-12-28T10:06:04;99712.94;;;2.71;71.66
73338;BME280;61575;49.908;35.556;2023-12-28T10:09:07;99709.19;;;2.74;70.80
73338;BME280;61575;49.908;35.556;2023-12-28T10:12:09;99710.88;;;2.75;71.32
73338;BME280;61575;49.908;35.556;2023-12-28T10:15:12;99719.66;;;2.64;71.01
73338;BME280;61575;49.908;35.556;2023-12-28T10:18:14;99722.97;;;2.55;71.41
73338;BME280;61575;49.908;35.556;2023-12-28T10:21:16;99724.00;;;2.65;71.88
73338;BME280;61575;49.908;35.556;2023-12-28T10:24:18;99709.16;;;2.63;72.89
73338;BME280;61575;49.908;35.556;2023-12-28T10:27:21;99718.81;;;2.64;73.00
73338;BME280;61575;49.908;35.556;2023-12-28T10:30:23;99721.94;;;2.69;72.70
73338;BME280;61575;49.908;35.556;2023-12-28T10:33:26;99729.75;;;2.59;71.13
73338;BME280;61575;49.908;35.556;2023-12-28T10:36:28;99727.00;;;2.37;69.16
73338;BME280;61575;49.908;35.556;2023-12-28T10:39:32;99738.00;;;2.43;70.12
73338;BME280;61575;49.908;35.556;2023-12-28T10:45:50;99722.53;;;2.37;68.34
73338;BME280;61575;49.908;35.556;2023-12-28T10:49:16;99737.66;;;2.24;67.69
73338;BME280;61575;49.908;35.556;2023-12-28T10:52:21;99744.19;;;2.31;68.51
73338;BME280;61575;49.908;35.556;2023-12-28T10:55:37;99725.31;;;2.36;68.68
73338;BME280;61575;49.908;35.556;2023-12-28T10:58:48;99727.28;;;2.45;68.93
73338;BME280;61575;49.908;35.556;2023-12-28T11:01:51;99726.25;;;2.59;69.34
73338;BME280;61575;49.908;35.556;2023-12-28T11:04:56;99726.63;;;2.65;69.66
73338;BME280;61575;49.908;35.556;2023-12-28T11:07:59;99738.94;;;2.66;69.59
73338;BME280;61575;49.908;35.556;2023-12-28T11:11:03;99730.13;;;2.66;69.03
73338;BME280;61575;49.908;35.556;2023-12-28T11:14:07;99741.75;;;2.76;69.85
73338;BME280;61575;49.908;35.556;2023-12-28T11:17:10;99729.91;;;2.69;69.20
73338;BME280;61575;49.908;35.556;2023-12-28T11:20:17;99728.25;;;2.79;69.52
73338;BME280;61575;49.908;35.556;2023-12-28T11:23:19;99720.56;;;2.87;69.60
73338;BME280;61575;49.908;35.556;2023-12-28T11:26:21;99726.44;;;2.79;69.05
73338;BME280;61575;49.908;35.556;2023-12-28T11:29:24;99725.59;;;2.79;68.63
73338;BME280;61575;49.908;35.556;2023-12-28T11:32:26;99726.06;;;2.73;67.72
73338;BME280;61575;49.908;35.556;2023-12-28T11:35:38;99725.75;;;2.54;67.09
73338;BME280;61575;49.908;35.556;2023-12-28T11:38:41;99728.13;;;2.45;67.16
73338;BME280;61575;49.908;35.556;2023-12-28T11:41:44;99727.84;;;2.37;66.76
73338;BME280;61575;49.908;35.556;2023-12-28T11:44:46;99735.56;;;2.40;68.00
73338;BME280;61575;49.908;35.556;2023-12-28T11:48:02;99751.69;;;2.37;68.65
73338;BME280;61575;49.908;35.556;2023-12-28T11:51:05;99748.09;;;2.38;69.56
73338;BME280;61575;49.908;35.556;2023-12-28T11:54:07;99753.31;;;2.27;68.75
73338;BME280;61575;49.908;35.556;2023-12-28T11:57:10;99753.09;;;2.30;68.52
73338;BME280;61575;49.908;35.556;2023-12-28T12:00:12;99755.13;;;2.27;68.44
73338;BME280;61575;49.908;35.556;2023-12-28T12:03:14;99742.84;;;2.26;69.13
73338;BME280;61575;49.908;35.556;2023-12-28T12:06:16;99730.88;;;2.20;68.81
73338;BME280;61575;49.908;35.556;2023-12-28T12:09:19;99727.78;;;2.26;69.22
73338;BME280;61575;49.908;35.556;2023-12-28T12:12:25;99722.38;;;2.28;69.98
73338;BME280;61575;49.908;35.556;2023-12-28T12:15:29;99722.81;;;2.22;69.26
73338;BME280;61575;49.908;35.556;2023-12-28T12:18:32;99731.09;;;2.17;69.41
73338;BME280;61575;49.908;35.556;2023-12-28T12:21:35;99723.56;;;2.24;69.07
73338;BME280;61575;49.908;35.556;2023-12-28T12:24:39;99723.88;;;2.19;69.66
73338;BME280;61575;49.908;35.556;2023-12-28T12:27:43;99723.94;;;2.06;69.34
73338;BME280;61575;49.908;35.556;2023-12-28T12:30:53;99715.88;;;2.08;69.85
73338;BME280;61575;49.908;35.556;2023-12-28T12:33:56;99725.97;;;2.03;70.39
73338;BME280;61575;49.908;35.556;2023-12-28T12:36:59;99722.03;;;2.08;70.52
73338;BME280;61575;49.908;35.556;2023-12-28T12:40:03;99725.22;;;2.01;70.78
73338;BME280;61575;49.908;35.556;2023-12-28T12:43:06;99729.81;;;1.86;71.57
73338;BME280;61575;49.908;35.556;2023-12-28T12:46:11;99733.09;;;1.90;71.85
73338;BME280;61575;49.908;35.556;2023-12-28T12:49:13;99738.31;;;1.78;72.23
73338;BME280;61575;49.908;35.556;2023-12-28T12:52:15;99728.22;;;1.83;72.36
73338;BME280;61575;49.908;35.556;2023-12-28T12:55:17;99720.31;;;1.71;72.56
73338;BME280;61575;49.908;35.556;2023-12-28T12:58:20;99721.91;;;1.73;72.95
73338;BME280;61575;49.908;35.556;2023-12-28T13:01:24;99725.41;;;1.61;73.12
73338;BME280;61575;49.908;35.556;2023-12-28T13:04:27;99726.03;;;1.65;72.95
73338;BME280;61575;49.908;35.556;2023-12-28T13:07:29;99725.41;;;1.61;73.22
73338;BME280;61575;49.908;35.556;2023-12-28T13:10:31;99718.34;;;1.49;73.27
73338;BME280;61575;49.908;35.556;2023-12-28T13:13:34;99721.94;;;1.48;73.17
73338;BME280;61575;49.908;35.556;2023-12-28T13:16:36;99724.81;;;1.45;73.37
73338;BME280;61575;49.908;35.556;2023-12-28T13:19:39;99728.72;;;1.39;73.17
73338;BME280;61575;49.908;35.556;2023-12-28T13:22:41;99720.38;;;1.33;73.04
73338;BME280;61575;49.908;35.556;2023-12-28T13:25:43;99714.22;;;1.32;73.33
73338;BME280;61575;49.908;35.556;2023-12-28T13:28:46;99734.75;;;1.29;73.43
73338;BME280;61575;49.908;35.556;2023-12-28T13:31:48;99731.56;;;1.24;73.12
73338;BME280;61575;49.908;35.556;2023-12-28T13:34:52;99733.38;;;1.23;73.12
73338;BME280;61575;49.908;35.556;2023-12-28T13:37:54;99730.41;;;1.15;73.78
73338;BME280;61575;49.908;35.556;2023-12-28T13:40:58;99748.06;;;1.14;73.89
73338;BME280;61575;49.908;35.556;2023-12-28T13:44:00;99754.97;;;1.17;74.26
73338;BME280;61575;49.908;35.556;2023-12-28T13:47:05;99750.72;;;1.14;74.87
73338;BME280;61575;49.908;35.556;2023-12-28T13:50:10;99747.13;;;1.15;75.19
73338;BME280;61575;49.908;35.556;2023-12-28T13:53:12;99754.22;;;1.15;75.99
73338;BME280;61575;49.908;35.556;2023-12-28T13:56:14;99753.91;;;1.20;75.50
73338;BME280;61575;49.908;35.556;2023-12-28T13:59:16;99736.88;;;1.24;76.29
73338;BME280;61575;49.908;35.556;2023-12-28T14:02:18;99745.13;;;1.19;76.18
73338;BME280;61575;49.908;35.556;2023-12-28T14:05:21;99747.56;;;1.22;76.35
73338;BME280;61575;49.908;35.556;2023-12-28T14:08:25;99741.63;;;1.18;76.33
73338;BME280;61575;49.908;35.556;2023-12-28T14:11:27;99744.59;;;1.14;76.91
73338;BME280;61575;49.908;35.556;2023-12-28T14:14:30;99753.78;;;1.08;77.08
73338;BME280;61575;49.908;35.556;2023-12-28T14:17:32;99749.66;;;1.04;77.31
73338;BME280;61575;49.908;35.556;2023-12-28T14:20:34;99744.56;;;1.01;77.50
73338;BME280;61575;49.908;35.556;2023-12-28T14:23:36;99742.66;;;0.91;77.46
73338;BME280;61575;49.908;35.556;2023-12-28T14:26:41;99753.34;;;0.89;77.33
73338;BME280;61575;49.908;35.556;2023-12-28T14:29:45;99759.56;;;0.88;77.04
73338;BME280;61575;49.908;35.556;2023-12-28T14:32:47;99744.44;;;0.77;76.84
73338;BME280;61575;49.908;35.556;2023-12-28T14:35:50;99760.59;;;0.73;76.94
73338;BME280;61575;49.908;35.556;2023-12-28T14:38:52;99753.41;;;0.75;76.88
73338;BME280;61575;49.908;35.556;2023-12-28T14:41:54;99758.91;;;0.72;76.84
73338;BME280;61575;49.908;35.556;2023-12-28T14:44:56;99757.66;;;0.77;76.84
73338;BME280;61575;49.908;35.556;2023-12-28T14:47:58;99756.81;;;0.77;76.63
73338;BME280;61575;49.908;35.556;2023-12-28T14:51:01;99755.22;;;0.74;77.08
73338;BME280;61575;49.908;35.556;2023-12-28T14:54:05;99756.59;;;0.80;76.62
73338;BME280;61575;49.908;35.556;2023-12-28T14:57:06;99766.97;;;0.83;77.04
73338;BME280;61575;49.908;35.556;2023-12-28T15:00:09;99764.41;;;0.81;76.97
73338;BME280;61575;49.908;35.556;2023-12-28T15:03:12;99757.53;;;0.79;76.81
73338;BME280;61575;49.908;35.556;2023-12-28T15:06:14;99754.69;;;0.82;76.85
73338;BME280;61575;49.908;35.556;2023-12-28T15:09:16;99757.97;;;0.85;77.07
73338;BME280;61575;49.908;35.556;2023-12-28T15:12:18;99752.91;;;0.82;76.98
73338;BME280;61575;49.908;35.556;2023-12-28T15:15:21;99746.56;;;0.85;77.25
73338;BME280;61575;49.908;35.556;2023-12-28T15:18:23;99757.25;;;0.83;77.31
73338;BME280;61575;49.908;35.556;2023-12-28T15:21:26;99753.84;;;0.81;77.44
73338;BME280;61575;49.908;35.556;2023-12-28T15:24:28;99743.16;;;0.83;77.00
73338;BME280;61575;49.908;35.556;2023-12-28T15:27:30;99741.28;;;0.85;77.56
73338;BME280;61575;49.908;35.556;2023-12-28T15:30:32;99739.34;;;0.74;78.13
73338;BME280;61575;49.908;35.556;2023-12-28T15:33:35;99734.16;;;0.73;78.19
73338;BME280;61575;49.908;35.556;2023-12-28T15:36:37;99723.47;;;0.62;78.64
73338;BME280;61575;49.908;35.556;2023-12-28T15:39:39;99728.34;;;0.68;78.51
73338;BME280;61575;49.908;35.556;2023-12-28T15:42:43;99732.47;;;0.72;78.46
73338;BME280;61575;49.908;35.556;2023-12-28T15:45:49;99739.44;;;0.73;78.56
73338;BME280;61575;49.908;35.556;2023-12-28T15:48:51;99736.81;;;0.73;78.87
73338;BME280;61575;49.908;35.556;2023-12-28T15:51:54;99736.59;;;0.76;79.27
73338;BME280;61575;49.908;35.556;2023-12-28T15:54:56;99742.63;;;0.78;79.02
73338;BME280;61575;49.908;35.556;2023-12-28T15:57:58;99742.63;;;0.78;79.19
73338;BME280;61575;49.908;35.556;2023-12-28T16:01:01;99732.06;;;0.78;78.89
73338;BME280;61575;49.908;35.556;2023-12-28T16:04:03;99718.84;;;0.78;79.14
73338;BME280;61575;49.908;35.556;2023-12-28T16:07:05;99717.16;;;0.77;78.81
73338;BME280;61575;49.908;35.556;2023-12-28T16:10:08;99720.94;;;0.73;79.18
73338;BME280;61575;49.908;35.556;2023-12-28T16:13:10;99717.66;;;0.69;79.37
73338;BME280;61575;49.908;35.556;2023-12-28T16:16:13;99709.19;;;0.64;79.48